createdAt,value
2018-05-29T00:00:42.122Z,78.69
2018-05-29T00:01:42.122Z,79.08
2018-05-29T00:02:41.868Z,78.79
2018-05-29T00:03:42.131Z,79.27
2018-05-29T00:04:42.134Z,79.36
2018-05-29T00:05:42.132Z,79.66
2018-05-29T00:06:42.129Z,79.66
2018-05-29T00:07:41.877Z,79.56
2018-05-29T00:08:41.883Z,79.75
2018-05-29T00:09:41.875Z,79.36
2018-05-29T00:10:42.151Z,79.56
2018-05-29T00:11:42.149Z,79.85
2018-05-29T00:12:42.141Z,79.66
2018-05-29T00:13:42.159Z,79.75
2018-05-29T00:14:41.893Z,79.85
2018-05-29T00:15:41.940Z,79.85
2018-05-29T00:16:41.894Z,79.85
2018-05-29T00:17:42.152Z,79.75
2018-05-29T00:18:42.164Z,79.56
2018-05-29T00:19:41.917Z,79.66
2018-05-29T00:20:41.908Z,79.75
2018-05-29T00:21:42.171Z,79.66
2018-05-29T00:22:41.908Z,79.56
2018-05-29T00:23:42.178Z,79.75
2018-05-29T00:24:42.184Z,79.75
2018-05-29T00:25:42.181Z,79.85
2018-05-29T00:26:42.178Z,80.14
2018-05-29T00:27:41.921Z,80.04
2018-05-29T00:28:41.935Z,79.9
2018-05-29T00:29:41.923Z,80.33
2018-05-29T00:30:42.184Z,80.19
2018-05-29T00:31:41.934Z,80.38
2018-05-29T00:32:41.931Z,80.29
2018-05-29T00:33:41.935Z,80.29
2018-05-29T00:34:42.214Z,80.19
2018-05-29T00:35:41.939Z,80.68
2018-05-29T00:36:41.945Z,80.58
2018-05-29T00:37:42.211Z,80.96
2018-05-29T00:38:42.207Z,80.87
2018-05-29T00:39:41.948Z,80.77
2018-05-29T00:40:42.212Z,80.58
2018-05-29T00:41:41.951Z,81.25
2018-05-29T00:42:42.211Z,81.45
2018-05-29T00:43:42.219Z,81.54
2018-05-29T00:44:42.225Z,81.54
2018-05-29T00:45:42.222Z,81.35
2018-05-29T00:46:42.231Z,81.93
2018-05-29T00:47:41.973Z,82.21
2018-05-29T00:48:41.967Z,81.93
2018-05-29T00:49:42.229Z,82.08
2018-05-29T00:50:42.236Z,82.75
2018-05-29T00:51:41.986Z,83.33
2018-05-29T00:52:42.241Z,82.85
2018-05-29T00:53:42.257Z,83.42
2018-05-29T00:54:41.979Z,83.04
2018-05-29T00:55:41.984Z,83.14
2018-05-29T00:56:41.984Z,82.85
2018-05-29T00:57:41.994Z,83.81
2018-05-29T00:58:41.991Z,83.91
2018-05-29T00:59:42.023Z,83.52
2018-05-29T01:00:41.997Z,83.91
2018-05-29T01:01:42.251Z,83.91
2018-05-29T01:02:42.261Z,84.1
2018-05-29T01:03:42.001Z,84.19
2018-05-29T01:04:42.264Z,84.29
2018-05-29T01:05:42.008Z,84.48
2018-05-29T01:06:42.268Z,84.87
2018-05-29T01:07:42.010Z,84.58
2018-05-29T01:08:42.016Z,84.58
2018-05-29T01:09:42.014Z,84.58
2018-05-29T01:10:42.284Z,84.97
2018-05-29T01:11:42.019Z,85.16
2018-05-29T01:12:42.344Z,84.58
2018-05-29T01:13:42.278Z,84.97
2018-05-29T01:14:42.022Z,84.87
2018-05-29T01:15:42.020Z,84.39
2018-05-29T01:16:42.026Z,84.39
2018-05-29T01:17:42.287Z,84.39
2018-05-29T01:18:42.033Z,84.77
2018-05-29T01:19:42.291Z,84.39
2018-05-29T01:20:42.357Z,84.58
2018-05-29T01:21:42.291Z,85.16
2018-05-29T01:22:42.297Z,84.67
2018-05-29T01:23:42.312Z,84.58
2018-05-29T01:24:42.044Z,84.87
2018-05-29T01:25:42.308Z,85.16
2018-05-29T01:26:42.310Z,84.87
2018-05-29T01:27:42.047Z,85.25
2018-05-29T01:28:42.047Z,85.35
2018-05-29T01:29:42.324Z,85.93
2018-05-29T01:30:42.567Z,85.44
2018-05-29T01:31:42.321Z,84.97
2018-05-29T01:32:42.326Z,84.97
2018-05-29T01:33:42.329Z,85.64
2018-05-29T01:34:42.333Z,85.64
2018-05-29T01:35:42.868Z,85.06
2018-05-29T01:36:42.371Z,85.06
2018-05-29T01:37:42.077Z,85.16
2018-05-29T01:38:42.066Z,84.58
2018-05-29T01:39:42.070Z,84.58
2018-05-29T01:40:42.333Z,85.16
2018-05-29T01:41:42.076Z,85.16
2018-05-29T01:42:42.079Z,84.54
2018-05-29T01:43:42.753Z,84.77
2018-05-29T01:44:42.082Z,84.92
2018-05-29T01:45:42.354Z,84.73
2018-05-29T01:46:42.344Z,84.54
2018-05-29T01:47:42.361Z,85.11
2018-05-29T01:48:42.349Z,85.02
2018-05-29T01:49:42.098Z,85.21
2018-05-29T01:50:42.097Z,85.31
2018-05-29T01:51:42.093Z,85.11
2018-05-29T01:52:42.365Z,85.02
2018-05-29T01:53:42.102Z,85.31
2018-05-29T01:54:42.362Z,85.5
2018-05-29T01:55:42.365Z,85.02
2018-05-29T01:56:42.369Z,84.58
2018-05-29T01:57:42.104Z,84.1
2018-05-29T01:58:42.108Z,84.67
2018-05-29T01:59:42.418Z,84.67
2018-05-29T02:00:42.387Z,84.58
2018-05-29T02:01:42.120Z,84.87
2018-05-29T02:02:42.372Z,84.29
2018-05-29T02:03:42.382Z,84.19
2018-05-29T02:04:42.382Z,84.48
2018-05-29T02:05:42.119Z,84.39
2018-05-29T02:06:42.125Z,83.91
2018-05-29T02:07:42.382Z,83.81
2018-05-29T02:08:42.125Z,84.48
2018-05-29T02:09:42.396Z,83.81
2018-05-29T02:10:42.144Z,84.1
2018-05-29T02:11:42.408Z,83.33
2018-05-29T02:12:42.392Z,83.33
2018-05-29T02:13:42.407Z,83.04
2018-05-29T02:14:42.139Z,83.72
2018-05-29T02:15:42.397Z,83.04
2018-05-29T02:16:42.140Z,83.33
2018-05-29T02:17:42.402Z,82.46
2018-05-29T02:18:42.145Z,82.75
2018-05-29T02:19:42.145Z,82.65
2018-05-29T02:20:42.415Z,82.37
2018-05-29T02:21:42.149Z,82.37
2018-05-29T02:22:42.419Z,82.65
2018-05-29T02:23:42.414Z,81.98
2018-05-29T02:24:42.441Z,82.17
2018-05-29T02:25:42.417Z,82.37
2018-05-29T02:26:42.435Z,82.37
2018-05-29T02:27:42.427Z,82.08
2018-05-29T02:28:42.432Z,82.17
2018-05-29T02:29:42.428Z,82.17
2018-05-29T02:30:42.434Z,82.17
2018-05-29T02:31:42.433Z,82.37
2018-05-29T02:32:42.468Z,82.17
2018-05-29T02:33:42.443Z,81.98
2018-05-29T02:34:42.501Z,81.98
2018-05-29T02:35:42.438Z,82.27
2018-05-29T02:36:42.173Z,82.37
2018-05-29T02:37:42.438Z,82.85
2018-05-29T02:38:42.444Z,82.37
2018-05-29T02:39:42.178Z,83.23
2018-05-29T02:40:42.444Z,82.56
2018-05-29T02:41:42.442Z,82.46
2018-05-29T02:42:42.188Z,82.17
2018-05-29T02:43:42.196Z,82.08
2018-05-29T02:44:42.447Z,81.02
2018-05-29T02:45:42.454Z,81.4
2018-05-29T02:46:42.471Z,81.02
2018-05-29T02:47:42.459Z,81.5
2018-05-29T02:48:42.476Z,81.4
2018-05-29T02:49:42.459Z,81.3
2018-05-29T02:50:42.472Z,80.83
2018-05-29T02:51:42.457Z,81.12
2018-05-29T02:52:42.460Z,80.73
2018-05-29T02:53:42.463Z,80.25
2018-05-29T02:54:42.478Z,80.83
2018-05-29T02:55:42.468Z,80.15
2018-05-29T02:56:42.470Z,80.44
2018-05-29T02:57:42.476Z,79.96
2018-05-29T02:58:42.481Z,80.54
2018-05-29T02:59:42.477Z,80.25
2018-05-29T03:00:42.214Z,80.54
2018-05-29T03:01:42.215Z,80.92
2018-05-29T03:02:42.484Z,80.06
2018-05-29T03:03:42.483Z,80.06
2018-05-29T03:04:42.223Z,80.15
2018-05-29T03:05:42.224Z,80.15
2018-05-29T03:06:42.227Z,80.63
2018-05-29T03:07:42.250Z,80.83
2018-05-29T03:08:42.227Z,80.63
2018-05-29T03:09:42.508Z,80.92
2018-05-29T03:10:42.513Z,81.37
2018-05-29T03:11:42.503Z,81.5
2018-05-29T03:12:42.506Z,81.6
2018-05-29T03:13:42.238Z,81.7
2018-05-29T03:14:42.504Z,81.5
2018-05-29T03:15:42.242Z,81.7
2018-05-29T03:16:42.534Z,82.08
2018-05-29T03:17:42.518Z,82.32
2018-05-29T03:18:42.254Z,82.42
2018-05-29T03:19:42.261Z,83.19
2018-05-29T03:20:42.548Z,82.71
2018-05-29T03:21:42.522Z,82.9
2018-05-29T03:22:42.525Z,83
2018-05-29T03:23:42.260Z,83.19
2018-05-29T03:24:42.521Z,83.09
2018-05-29T03:25:42.521Z,83.19
2018-05-29T03:26:42.527Z,84.16
2018-05-29T03:27:42.530Z,84.63
2018-05-29T03:28:42.531Z,84.54
2018-05-29T03:29:42.280Z,84.44
2018-05-29T03:30:42.528Z,83.96
2018-05-29T03:31:42.696Z,83.86
2018-05-29T03:32:42.537Z,83.67
2018-05-29T03:33:42.536Z,83.19
2018-05-29T03:34:42.552Z,82.85
2018-05-29T03:35:42.540Z,83.23
2018-05-29T03:36:42.546Z,83.42
2018-05-29T03:37:42.541Z,83.81
2018-05-29T03:38:42.539Z,84.34
2018-05-29T03:39:42.546Z,84.39
2018-05-29T03:40:42.548Z,84.54
2018-05-29T03:41:42.549Z,84.25
2018-05-29T03:42:42.290Z,84.34
2018-05-29T03:43:42.549Z,84.44
2018-05-29T03:44:42.575Z,84.58
2018-05-29T03:45:42.550Z,84.48
2018-05-29T03:46:42.559Z,84.1
2018-05-29T03:47:42.557Z,83.81
2018-05-29T03:48:42.563Z,83.72
2018-05-29T03:49:42.563Z,83.42
2018-05-29T03:50:42.588Z,83.23
2018-05-29T03:51:42.593Z,83.04
2018-05-29T03:52:42.575Z,83.14
2018-05-29T03:53:42.579Z,83.33
2018-05-29T03:54:42.577Z,83.62
2018-05-29T03:55:42.336Z,83.81
2018-05-29T03:56:42.581Z,83.42
2018-05-29T03:57:42.581Z,83.81
2018-05-29T03:58:42.585Z,83.52
2018-05-29T03:59:42.600Z,83.62
2018-05-29T04:00:42.606Z,83.52
2018-05-29T04:01:42.645Z,83.56
2018-05-29T04:02:42.339Z,83.56
2018-05-29T04:03:42.595Z,83.66
2018-05-29T04:04:42.607Z,83.28
2018-05-29T04:05:42.337Z,82.26
2018-05-29T04:06:42.600Z,82.26
2018-05-29T04:07:42.603Z,81.96
2018-05-29T04:08:42.613Z,80.91
2018-05-29T04:09:42.634Z,80.14
2018-05-29T04:10:42.635Z,79.89
2018-05-29T04:11:42.618Z,79.5
2018-05-29T04:12:42.617Z,79.21
2018-05-29T04:13:42.622Z,78.44
2018-05-29T04:14:42.618Z,77.96
2018-05-29T04:15:42.672Z,78
2018-05-29T04:16:42.633Z,77.03
2018-05-29T04:17:42.377Z,76.07
2018-05-29T04:18:42.640Z,75.53
2018-05-29T04:19:42.639Z,74.95
2018-05-29T04:20:42.661Z,74.21
2018-05-29T04:21:42.385Z,73.15
2018-05-29T04:22:42.651Z,72.9
2018-05-29T04:23:42.656Z,71.74
2018-05-29T04:24:42.660Z,71.26
2018-05-29T04:25:42.657Z,70.42
2018-05-29T04:26:42.402Z,70.42
2018-05-29T04:27:42.408Z,70.62
2018-05-29T04:28:42.406Z,70.52
2018-05-29T04:29:42.685Z,70.48
2018-05-29T04:30:42.685Z,70.97
2018-05-29T04:31:42.427Z,71.55
2018-05-29T04:32:42.700Z,72.77
2018-05-29T04:33:42.692Z,73.5
2018-05-29T04:34:42.699Z,74.47
2018-05-29T04:35:42.713Z,74.47
2018-05-29T04:36:42.700Z,75.2
2018-05-29T04:37:42.699Z,75.4
2018-05-29T04:38:42.708Z,75.88
2018-05-29T04:39:42.722Z,76.07
2018-05-29T04:40:42.454Z,76.26
2018-05-29T04:41:42.728Z,77.03
2018-05-29T04:42:42.721Z,77.23
2018-05-29T04:43:42.833Z,77.13
2018-05-29T04:44:42.463Z,77.42
2018-05-29T04:45:42.747Z,77.13
2018-05-29T04:46:42.497Z,78.09
2018-05-29T04:47:42.749Z,78.09
2018-05-29T04:48:42.748Z,78.44
2018-05-29T04:49:42.498Z,78.34
2018-05-29T04:50:42.760Z,78.15
2018-05-29T04:51:42.494Z,78.63
2018-05-29T04:52:42.760Z,78.15
2018-05-29T04:53:42.795Z,78.44
2018-05-29T04:54:42.763Z,78.34
2018-05-29T04:55:42.766Z,78.34
2018-05-29T04:56:42.862Z,78.34
2018-05-29T04:57:42.771Z,78.83
2018-05-29T04:58:42.774Z,78.44
2018-05-29T04:59:42.802Z,78.54
2018-05-29T05:00:42.529Z,78.48
2018-05-29T05:01:42.581Z,78.77
2018-05-29T05:02:42.788Z,77.51
2018-05-29T05:03:42.554Z,77.13
2018-05-29T05:04:42.792Z,76.36
2018-05-29T05:05:42.801Z,76.1
2018-05-29T05:06:42.807Z,75.62
2018-05-29T05:07:42.811Z,75.82
2018-05-29T05:08:42.564Z,76.01
2018-05-29T05:09:42.811Z,76.1
2018-05-29T05:10:42.820Z,76.68
2018-05-29T05:11:42.816Z,76.88
2018-05-29T05:12:42.860Z,77.75
2018-05-29T05:13:42.577Z,77.65
2018-05-29T05:14:42.566Z,77.75
2018-05-29T05:15:42.568Z,77.55
2018-05-29T05:16:42.575Z,77.75
2018-05-29T05:17:42.576Z,78.23
2018-05-29T05:18:42.851Z,78.71
2018-05-29T05:19:42.885Z,78.61
2018-05-29T05:20:42.860Z,78.23
2018-05-29T05:21:42.595Z,78.23
2018-05-29T05:22:42.596Z,77.5
2018-05-29T05:23:42.933Z,77.84
2018-05-29T05:24:42.863Z,77.3
2018-05-29T05:25:42.613Z,77.3
2018-05-29T05:26:42.614Z,76.43
2018-05-29T05:27:42.870Z,75.85
2018-05-29T05:28:42.876Z,75.57
2018-05-29T05:29:42.879Z,75.67
2018-05-29T05:30:42.629Z,76.43
2018-05-29T05:31:43.847Z,75.85
2018-05-29T05:32:42.640Z,75.85
2018-05-29T05:33:42.897Z,76.15
2018-05-29T05:34:42.637Z,76.43
2018-05-29T05:35:42.908Z,76.53
2018-05-29T05:36:42.647Z,76.24
2018-05-29T05:37:42.652Z,76.92
2018-05-29T05:38:42.654Z,77.59
2018-05-29T05:39:42.917Z,78.27
2018-05-29T05:40:42.685Z,78.81
2018-05-29T05:41:42.675Z,79.77
2018-05-29T05:42:42.683Z,80.64
2018-05-29T05:43:42.675Z,80.64
2018-05-29T05:44:42.948Z,80.41
2018-05-29T05:45:42.694Z,80.45
2018-05-29T05:46:42.996Z,80.54
2018-05-29T05:47:42.689Z,80.26
2018-05-29T05:48:42.950Z,79.97
2018-05-29T05:49:42.696Z,79.39
2018-05-29T05:50:42.959Z,79.97
2018-05-29T05:51:42.718Z,79.1
2018-05-29T05:52:42.772Z,79.1
2018-05-29T05:53:42.989Z,78.75
2018-05-29T05:54:42.713Z,78.08
2018-05-29T05:55:42.978Z,77.69
2018-05-29T05:56:42.981Z,77.34
2018-05-29T05:57:42.981Z,75.41
2018-05-29T05:58:42.985Z,74.77
2018-05-29T05:59:42.735Z,74.48
2018-05-29T06:00:42.997Z,73.71
2018-05-29T06:01:46.771Z,71.81
2018-05-29T06:02:43.013Z,71.56
2018-05-29T06:03:43.026Z,71.17
2018-05-29T06:04:43.021Z,69.66
2018-05-29T06:05:42.761Z,67.6
2018-05-29T06:06:42.766Z,65.11
2018-05-29T06:07:42.776Z,63.59
2018-05-29T06:08:43.040Z,62.95
2018-05-29T06:09:43.038Z,60.06
2018-05-29T06:10:42.781Z,59.15
2018-05-29T06:11:42.792Z,57.89
2018-05-29T06:12:43.054Z,57.04
2018-05-29T06:23:16.672Z,51.82
2018-05-29T06:24:16.428Z,51.56
2018-05-29T06:25:16.694Z,50.19
2018-05-29T06:26:16.682Z,50.51
2018-05-29T06:27:16.695Z,51.19
2018-05-29T06:28:16.434Z,51.07
2018-05-29T06:29:16.700Z,51.07
2018-05-29T06:30:16.707Z,51.56
2018-05-29T06:31:16.715Z,51.07
2018-05-29T06:32:16.725Z,51.07
2018-05-29T06:33:16.727Z,52.5
2018-05-29T06:34:16.471Z,52.89
2018-05-29T06:35:16.738Z,51.14
2018-05-29T06:36:16.488Z,50.58
2018-05-29T06:37:16.765Z,50.02
2018-05-29T06:38:16.788Z,50.29
2018-05-29T06:39:16.786Z,51.36
2018-05-29T06:40:16.801Z,52.5
2018-05-29T06:41:16.786Z,52.87
2018-05-29T06:42:16.793Z,52.8
2018-05-29T06:43:16.544Z,52.4
2018-05-29T06:44:16.812Z,51.17
2018-05-29T06:45:16.572Z,50.78
2018-05-29T06:46:16.592Z,51.07
2018-05-29T06:47:16.854Z,50.12
2018-05-29T06:48:16.601Z,49.54
2018-05-29T06:49:16.857Z,49.37
2018-05-29T06:50:16.862Z,50.31
2018-05-29T06:51:16.866Z,50.41
2018-05-29T06:52:16.635Z,51.26
2018-05-29T06:53:16.632Z,51.07
2018-05-29T06:54:16.901Z,51.46
2018-05-29T06:55:16.650Z,51.65
2018-05-29T06:56:16.916Z,52.04
2018-05-29T06:57:16.918Z,51.17
2018-05-29T06:58:16.926Z,50.87
2018-05-29T06:59:16.935Z,49.93
2018-05-29T07:00:16.694Z,49.66
2018-05-29T07:01:16.967Z,49.07
2018-05-29T07:02:16.702Z,49.56
2018-05-29T07:03:16.995Z,50.34
2018-05-29T07:04:16.974Z,50.04
2018-05-29T07:05:16.988Z,49.27
2018-05-29T07:06:16.737Z,50.04
2018-05-29T07:07:16.997Z,50.6
2018-05-29T07:08:17.062Z,49.83
2018-05-29T07:09:17.014Z,49.83
2018-05-29T07:10:17.017Z,51.09
2018-05-29T07:11:16.766Z,51.17
2018-05-29T07:12:16.782Z,51.39
2018-05-29T07:13:17.049Z,50.9
2018-05-29T07:14:16.789Z,51.39
2018-05-29T07:15:17.060Z,50.21
2018-05-29T07:16:17.066Z,50.21
2018-05-29T07:17:16.822Z,50.8
2018-05-29T07:18:17.077Z,50.99
2018-05-29T07:19:17.088Z,51.95
2018-05-29T07:20:16.842Z,52.44
2018-05-29T07:21:16.838Z,52.4
2018-05-29T07:22:16.852Z,53.19
2018-05-29T07:23:16.859Z,53.26
2018-05-29T07:24:16.867Z,53.16
2018-05-29T07:25:17.145Z,53.94
2018-05-29T07:26:16.883Z,54.23
2018-05-29T07:27:17.224Z,53.06
2018-05-29T07:28:17.153Z,54.69
2018-05-29T07:29:16.898Z,55.93
2018-05-29T07:30:17.166Z,56.59
2018-05-29T07:31:17.250Z,57.26
2018-05-29T07:32:17.179Z,57.82
2018-05-29T07:33:17.190Z,57.72
2018-05-29T07:34:17.189Z,58.01
2018-05-29T07:35:16.939Z,58.76
2018-05-29T07:36:17.223Z,60.02
2018-05-29T07:37:17.207Z,60.68
2018-05-29T07:38:17.296Z,61.65
2018-05-29T07:39:16.966Z,62.01
2018-05-29T07:40:17.229Z,61.32
2018-05-29T07:41:17.248Z,60.97
2018-05-29T07:42:17.238Z,60.77
2018-05-29T07:43:17.255Z,60.8
2018-05-29T07:44:17.265Z,59.92
2018-05-29T07:45:17.459Z,58.98
2018-05-29T07:46:17.296Z,57.36
2018-05-29T07:47:17.278Z,56.32
2018-05-29T07:48:17.287Z,56.51
2018-05-29T07:49:17.289Z,56.61
2018-05-29T07:50:17.294Z,57.49
2018-05-29T07:51:17.049Z,57.2
2018-05-29T07:52:17.331Z,57.39
2018-05-29T07:53:17.368Z,58.46
2018-05-29T07:54:17.319Z,59.28
2018-05-29T07:55:17.331Z,60.15
2018-05-29T07:56:17.341Z,61.58
2018-05-29T07:57:17.341Z,62.52
2018-05-29T07:58:17.360Z,63.75
2018-05-29T07:59:17.353Z,65.3
2018-05-29T08:00:17.102Z,65.08
2018-05-29T08:01:17.107Z,64.69
2018-05-29T08:02:17.126Z,65.08
2018-05-29T08:03:17.116Z,65.75
2018-05-29T08:04:17.396Z,65.08
2018-05-29T08:05:17.396Z,64.72
2018-05-29T08:06:17.139Z,64.53
2018-05-29T08:07:17.145Z,64.33
2018-05-29T08:08:17.469Z,64.23
2018-05-29T08:09:17.412Z,63.88
2018-05-29T08:10:17.419Z,64.07
2018-05-29T08:11:17.432Z,65.11
2018-05-29T08:12:17.428Z,65.89
2018-05-29T08:13:17.452Z,66.63
2018-05-29T08:14:17.185Z,66.63
2018-05-29T08:15:17.189Z,67.27
2018-05-29T08:16:17.473Z,67.37
2018-05-29T08:17:17.456Z,67.08
2018-05-29T08:18:17.468Z,66.63
2018-05-29T08:19:17.212Z,66.34
2018-05-29T08:20:17.476Z,66.72
2018-05-29T08:21:17.479Z,66.44
2018-05-29T08:22:17.491Z,66.05
2018-05-29T08:23:17.502Z,65.95
2018-05-29T08:24:17.237Z,65.66
2018-05-29T08:25:17.517Z,66.14
2018-05-29T08:26:17.515Z,66.44
2018-05-29T08:27:17.517Z,66.99
2018-05-29T08:28:17.263Z,67.57
2018-05-29T08:29:17.533Z,68.15
2018-05-29T08:30:17.273Z,68.34
2018-05-29T08:31:17.622Z,68.5
2018-05-29T08:32:17.541Z,68.5
2018-05-29T08:33:17.292Z,68.05
2018-05-29T08:34:17.289Z,68.34
2018-05-29T08:35:17.297Z,68.44
2018-05-29T08:36:17.309Z,68.05
2018-05-29T08:37:17.568Z,68.24
2018-05-29T08:38:17.631Z,69.08
2018-05-29T08:39:17.588Z,68.5
2018-05-29T08:40:17.327Z,68.79
2018-05-29T08:41:17.330Z,68.6
2018-05-29T08:42:17.355Z,67.92
2018-05-29T08:43:17.341Z,68.15
2018-05-29T08:44:17.612Z,68.24
2018-05-29T08:45:17.357Z,68.89
2018-05-29T08:46:17.407Z,69.08
2018-05-29T08:47:17.639Z,68.79
2018-05-29T08:48:17.365Z,68.34
2018-05-29T08:49:17.649Z,67.85
2018-05-29T08:50:17.375Z,68.05
2018-05-29T08:51:17.382Z,67.85
2018-05-29T08:52:17.397Z,67.76
2018-05-29T08:53:17.655Z,67.37
2018-05-29T08:54:17.673Z,67.18
2018-05-29T08:55:17.404Z,67.66
2018-05-29T08:56:17.667Z,66.79
2018-05-29T08:57:17.474Z,66.34
2018-05-29T08:58:17.679Z,65.56
2018-05-29T08:59:17.699Z,66.14
2018-05-29T09:00:17.704Z,64.53
2018-05-29T09:01:17.702Z,63.59
2018-05-29T09:02:17.700Z,63.78
2018-05-29T09:03:18.247Z,63.59
2018-05-29T09:04:17.857Z,62.81
2018-05-29T09:05:17.724Z,62.62
2018-05-29T09:06:17.469Z,63.2
2018-05-29T09:07:17.740Z,63.98
2018-05-29T09:08:17.797Z,65.11
2018-05-29T09:09:17.489Z,65.17
2018-05-29T09:10:17.488Z,64.88
2018-05-29T09:11:17.759Z,65.66
2018-05-29T09:12:17.502Z,65.17
2018-05-29T09:13:17.509Z,65.95
2018-05-29T09:14:17.775Z,64.88
2018-05-29T09:15:17.532Z,64.5
2018-05-29T09:16:17.797Z,64.3
2018-05-29T09:17:17.799Z,64.98
2018-05-29T09:18:17.545Z,65.17
2018-05-29T09:19:17.550Z,64.88
2018-05-29T09:20:17.808Z,66.14
2018-05-29T09:21:17.814Z,66.2
2018-05-29T09:22:17.834Z,66.5
2018-05-29T09:23:17.565Z,66.69
2018-05-29T09:24:17.573Z,66.89
2018-05-29T09:25:17.837Z,65.63
2018-05-29T09:26:17.861Z,65.27
2018-05-29T09:27:17.605Z,64.3
2018-05-29T09:28:17.598Z,63.95
2018-05-29T09:29:17.866Z,64.53
2018-05-29T09:30:17.863Z,64.98
2018-05-29T09:31:17.611Z,64.98
2018-05-29T09:32:17.872Z,66.3
2018-05-29T09:33:17.879Z,66.14
2018-05-29T09:34:17.888Z,65.75
2018-05-29T09:35:17.886Z,65.92
2018-05-29T09:36:17.638Z,65.34
2018-05-29T09:37:17.901Z,66.53
2018-05-29T09:38:17.906Z,65.53
2018-05-29T09:39:17.911Z,65.27
2018-05-29T09:40:17.997Z,64.88
2018-05-29T09:41:17.666Z,65.11
2018-05-29T09:42:17.700Z,65.4
2018-05-29T09:43:17.942Z,65.08
2018-05-29T09:44:17.982Z,65.5
2018-05-29T09:45:17.949Z,64.92
2018-05-29T09:46:17.964Z,65.01
2018-05-29T09:47:17.697Z,64.33
2018-05-29T09:48:17.743Z,64.82
2018-05-29T09:49:17.719Z,64.92
2018-05-29T09:50:17.989Z,65.2
2018-05-29T09:51:17.998Z,64.98
2018-05-29T09:52:17.988Z,65.27
2018-05-29T09:53:18.004Z,66.24
2018-05-29T09:54:17.995Z,65.56
2018-05-29T09:55:18.007Z,65.01
2018-05-29T09:56:18.012Z,64.33
2018-05-29T09:57:18.015Z,64.23
2018-05-29T09:58:18.030Z,64.17
2018-05-29T09:59:17.764Z,64.23
2018-05-29T10:00:17.791Z,63.78
2018-05-29T10:01:18.075Z,63.49
2018-05-29T10:02:18.058Z,62.81
2018-05-29T10:03:18.057Z,62.71
2018-05-29T10:04:18.059Z,62.71
2018-05-29T10:05:18.071Z,62.81
2018-05-29T10:06:18.092Z,63.2
2018-05-29T10:07:18.249Z,62.42
2018-05-29T10:08:18.092Z,62.65
2018-05-29T10:09:18.099Z,62.55
2018-05-29T10:10:18.110Z,63.59
2018-05-29T10:11:17.885Z,63.78
2018-05-29T10:12:17.886Z,63.59
2018-05-29T10:13:17.917Z,63.68
2018-05-29T10:14:17.886Z,63.68
2018-05-29T10:15:18.147Z,63.75
2018-05-29T10:16:17.901Z,63.68
2018-05-29T10:17:18.143Z,63.88
2018-05-29T10:18:18.144Z,63.46
2018-05-29T10:19:18.213Z,63.95
2018-05-29T10:20:17.920Z,64.23
2018-05-29T10:21:18.181Z,63.75
2018-05-29T10:22:18.179Z,64.53
2018-05-29T10:23:17.949Z,64.4
2018-05-29T10:53:40.791Z,62.62
2018-05-29T10:54:40.801Z,63.29
2018-05-29T10:55:40.816Z,62.98
2018-05-29T10:56:40.793Z,63.29
2018-05-29T10:57:40.806Z,62.98
2018-05-29T10:58:40.812Z,63.59
2018-05-29T10:59:40.813Z,63.26
2018-05-29T11:00:40.551Z,62.91
2018-05-29T11:01:40.551Z,62.91
2018-05-29T11:02:40.561Z,63.49
2018-05-29T11:03:40.565Z,63.07
2018-05-29T11:04:40.836Z,63.36
2018-05-29T11:05:40.571Z,63.07
2018-05-29T11:06:40.581Z,62.91
2018-05-29T11:07:40.583Z,63.49
2018-05-29T11:08:40.587Z,63.85
2018-05-29T11:09:40.596Z,63.46
2018-05-29T11:10:40.861Z,62.68
2018-05-29T11:11:40.869Z,63.68
2018-05-29T11:12:40.874Z,63.65
2018-05-29T11:13:40.871Z,63.75
2018-05-29T11:14:40.617Z,63.65
2018-05-29T11:15:40.634Z,63.56
2018-05-29T11:16:40.895Z,63.36
2018-05-29T11:17:40.647Z,63.36
2018-05-29T11:18:40.904Z,62.88
2018-05-29T11:19:40.674Z,62.62
2018-05-29T11:20:40.656Z,61.84
2018-05-29T11:21:40.666Z,62.13
2018-05-29T11:22:40.929Z,61.38
2018-05-29T11:23:40.995Z,60.31
2018-05-29T11:24:40.698Z,60.64
2018-05-29T11:25:40.704Z,61
2018-05-29T11:26:40.964Z,61.87
2018-05-29T11:27:40.958Z,62.45
2018-05-29T11:28:40.962Z,62.42
2018-05-29T11:29:40.968Z,62.71
2018-05-29T11:30:40.718Z,62.81
2018-05-29T11:31:40.981Z,63.78
2018-05-29T11:32:40.726Z,64.14
2018-05-29T11:33:40.996Z,63.95
2018-05-29T11:34:40.735Z,63.68
2018-05-29T11:35:41.005Z,63.17
2018-05-29T11:36:40.761Z,62.23
2018-05-29T11:37:40.773Z,62.23
2018-05-29T11:38:41.023Z,61.94
2018-05-29T11:39:41.040Z,62.62
2018-05-29T11:40:41.052Z,62.04
2018-05-29T11:41:40.784Z,61.84
2018-05-29T11:42:41.056Z,61.68
2018-05-29T11:43:41.058Z,60.31
2018-05-29T11:44:41.064Z,60.44
2018-05-29T11:45:40.817Z,60.51
2018-05-29T11:46:41.086Z,60.44
2018-05-29T11:47:41.102Z,60.44
2018-05-29T11:48:40.913Z,60.74
2018-05-29T11:49:41.100Z,61.58
2018-05-29T11:50:41.092Z,61.29
2018-05-29T11:51:40.836Z,61
2018-05-29T11:52:40.854Z,61.38
2018-05-29T11:53:41.119Z,61.87
2018-05-29T11:54:41.134Z,62.13
2018-05-29T11:55:40.874Z,62.32
2018-05-29T11:56:40.867Z,62.04
2018-05-29T11:57:40.884Z,61.94
2018-05-29T11:58:41.146Z,62.91
2018-05-29T11:59:40.915Z,62.04
2018-05-29T12:00:41.288Z,62.04
2018-05-29T12:01:40.929Z,61.48
2018-05-29T12:02:41.165Z,62.13
2018-05-29T12:03:40.919Z,61.84
2018-05-29T12:04:41.176Z,62.23
2018-05-29T12:05:40.926Z,62.13
2018-05-29T12:06:41.188Z,61.65
2018-05-29T12:07:40.956Z,62.04
2018-05-29T12:08:40.988Z,62.04
2018-05-29T12:09:41.209Z,62.04
2018-05-29T12:10:40.957Z,61.94
2018-05-29T12:11:40.975Z,62.13
2018-05-29T12:12:41.225Z,61.94
2018-05-29T12:13:40.977Z,61.25
2018-05-29T12:14:40.997Z,61.29
2018-05-29T12:15:40.980Z,60.61
2018-05-29T12:16:40.984Z,60.15
2018-05-29T12:17:40.989Z,59.21
2018-05-29T12:18:41.801Z,59.01
2018-05-29T12:19:41.268Z,59.59
2018-05-29T12:20:41.270Z,59.69
2018-05-29T12:21:41.291Z,59.31
2018-05-29T12:22:41.022Z,60.05
2018-05-29T12:23:41.339Z,60.83
2018-05-29T12:24:41.294Z,60.93
2018-05-29T12:25:41.046Z,61.48
2018-05-29T12:26:41.302Z,62.07
2018-05-29T12:27:41.069Z,62.52
2018-05-29T12:28:41.321Z,63.2
2018-05-29T12:29:41.328Z,63.2
2018-05-29T12:30:41.337Z,63.95
2018-05-29T12:31:41.075Z,64.23
2018-05-29T12:32:41.343Z,64.04
2018-05-29T12:33:41.091Z,63.56
2018-05-29T12:34:41.103Z,63.95
2018-05-29T12:35:41.364Z,62.88
2018-05-29T12:36:41.366Z,63.01
2018-05-29T12:37:41.372Z,63.17
2018-05-29T12:38:41.581Z,62.81
2018-05-29T12:39:41.383Z,62.91
2018-05-29T12:40:41.392Z,63.17
2018-05-29T12:41:41.134Z,63.39
2018-05-29T12:42:41.146Z,62.91
2018-05-29T12:43:41.410Z,62.23
2018-05-29T12:44:41.411Z,62.42
2018-05-29T12:45:41.160Z,61.94
2018-05-29T12:46:41.421Z,62.62
2018-05-29T12:47:41.169Z,61.94
2018-05-29T12:48:41.435Z,62.71
2018-05-29T12:49:41.441Z,62.42
2018-05-29T12:50:41.444Z,62.59
2018-05-29T12:51:41.463Z,62.98
2018-05-29T12:52:41.200Z,63.07
2018-05-29T12:53:41.257Z,63.17
2018-05-29T12:54:41.222Z,63.17
2018-05-29T12:55:41.483Z,63.56
2018-05-29T12:56:41.219Z,63.75
2018-05-29T12:57:41.493Z,63.72
2018-05-29T12:58:41.507Z,63.91
2018-05-29T12:59:41.248Z,63.62
2018-05-29T13:00:41.241Z,63.72
2018-05-29T13:01:41.244Z,63.75
2018-05-29T13:02:41.512Z,63.72
2018-05-29T13:03:41.275Z,63.23
2018-05-29T13:04:41.260Z,63.17
2018-05-29T13:05:41.266Z,63.36
2018-05-29T13:06:41.529Z,63.72
2018-05-29T13:07:41.287Z,64.01
2018-05-29T13:08:41.336Z,64.11
2018-05-29T13:09:41.558Z,64.3
2018-05-29T13:10:41.295Z,64.5
2018-05-29T13:11:41.555Z,64.2
2018-05-29T13:12:41.314Z,63.91
2018-05-29T13:13:42.127Z,63.62
2018-05-29T13:14:41.314Z,62.88
2018-05-29T13:15:41.333Z,63.36
2018-05-29T13:16:41.651Z,62.59
2018-05-29T13:17:41.337Z,62.19
2018-05-29T13:18:41.337Z,61.71
2018-05-29T13:19:41.340Z,61.25
2018-05-29T13:20:41.349Z,62.13
2018-05-29T13:21:41.352Z,61.91
2018-05-29T13:22:41.674Z,62.65
2018-05-29T13:23:41.362Z,62.95
2018-05-29T13:24:41.376Z,63.62
2018-05-29T13:25:41.388Z,63.33
2018-05-29T13:26:41.655Z,63.43
2018-05-29T13:27:41.709Z,62.19
2018-05-29T13:28:41.664Z,62.19
2018-05-29T13:29:41.662Z,62.55
2018-05-29T13:30:41.663Z,62.75
2018-05-29T13:31:41.681Z,62.46
2018-05-29T13:32:41.818Z,61.98
2018-05-29T13:33:41.682Z,62.75
2018-05-29T13:34:41.430Z,62.75